Terminal Aerodrome Forecast
Issued by NWS Northern Indiana

Home | Current Version | Previous Version | Text Only | Print | Product List | Glossary On
Versions: 1 2 3 4 5 6 7 8 9 10 11 12 13 14
258
FTUS43 KIWX 111120
TAFFWA
TAF
KFWA 111120Z 1112/1212 15011KT 1 1/2SM -SN BR OVC015
     FM112300 19011KT 3/4SM -SN BR OVC006
     FM120300 22010KT 2SM -SNRA BR OVC006
     FM120600 24010KT P6SM OVC008=

USA.gov is the U.S. government's official web portal to all federal, state and local government web resources and services.